Tiempo atmosférico en la estación meteorológica de Noia, A Coruña (128 m.)



Fecha
DESCASC
Temp. máxima en grados centígrados (hora)
DESCASC
Temp. mínima en grados centígrados (hora)
DESCASC
Temp. media en grados centígrados
DESCASC
Racha de viento máxima en m/sg (hora)
DESCASC
Velocidad máxima media en intervalos de 10 minutos(hora)
DESCASC
Precipitaciones diarias en mm
DESCASC
Precipitaciones de 00:00 a 06:00 en mm
DESCASC
Precipitaciones de 06:00 a 12:00 en mm
DESCASC
Precipitaciones de 12:00 a 18:00 en mm
DESCASC
Precipitaciones de 18:00 a 24:00 en mm
DESCASC
22-11-2020 18.2 (13:30) 7.9 (08:40) 13.1 2.78 (23:59) 1.39 (23:59) 0 0 0 0 0
21-11-2020 17.9 (13:30) 9.4 (23:59) 13.6 4.17 (06:40) 1.67 (06:40) 0 0 0 0 0
20-11-2020 16.7 (16:00) 9.7 (04:00) 13.2 6.67 (01:30) 1.94 (01:40) 0 0 0 0 0
19-11-2020 17.4 (14:50) 10.5 (00:00) 13.9 6.39 (06:00) 2.22 (07:00) 0 0 0 0 0
18-11-2020 16.8 (13:30) 14.5 (00:00) 15.6 11.39 (11:20) 4.72 (12:30) 8 3.2 0.8 0.2 3.8
17-11-2020 18.7 (13:20) 8.1 (00:00) 13.4 6.94 (14:00) 2.78 (22:00) 1.6 0 0 0 1.6
16-11-2020 15 (13:50) 7.9 (00:00) 11.5 2.22 (02:50) 1.39 (02:50) 0.2 0.2 0 0 0
15-11-2020 17.2 (04:40) 10.8 (00:00) 14 14.44 (05:50) 3.89 (05:20) 22 11.6 9 1.4 0
14-11-2020 16.3 (23:59) 13.5 (00:00) 14.9 13.89 (12:30) 5.28 (10:40) 16.4 0 0.8 2.2 13.4
13-11-2020 18.4 (13:20) 11.2 (00:00) 14.8 8.06 (14:30) 3.61 (13:50) 0 0 0 0 0
12-11-2020 18.8 (13:40) 12.5 (00:00) 15.6 8.06 (07:10) 3.61 (05:50) 3.4 3.2 0.2 0 0
11-11-2020 15.4 (13:20) 9.8 (00:00) 12.6 12.5 (13:10) 5 (12:50) 10 0 0 2.4 7.6
10-11-2020 17.1 (13:40) 10 (00:00) 13.6 5 (13:00) 1.94 (12:50) 0 0 0 0 0
09-11-2020 15.6 (12:50) 12.3 (00:00) 14 7.78 (00:50) 1.67 (10:10) 11.8 6.4 5.4 0 0
08-11-2020 16.1 (14:50) 12.7 (00:00) 14.4 16.39 (05:50) 6.67 (05:50) 28.2 14.8 7.8 5 0.6
07-11-2020 15.1 (15:00) 12.6 (00:00) 13.9 13.61 (14:50) 5 (13:40) 22.6 0 4 5.2 13.4
06-11-2020 15.7 (03:50) 12.9 (00:00) 14.3 8.33 (14:10) 3.61 (00:30) 7.4 0 2.6 4 0.8
05-11-2020 14.7 (14:10) 9.5 (00:00) 12.1 10.56 (00:40) 2.78 (00:40) 0.4 0 0.4 0 0
04-11-2020 13 (14:10) 6.1 (00:00) 9.5 14.44 (19:10) 3.33 (22:40) 0 0 0 0 0
03-11-2020 13.8 (13:10) 6.7 (00:00) 10.3 6.39 (14:20) 1.94 (17:00) -- -- -- 0 0
02-11-2020 17.9 (07:20) 8.8 (00:00) 13.3 10 (02:40) 3.33 (01:20) -- -- -- -- --
01-11-2020 17.7 (22:30) 16.1 (00:00) 16.9 10.28 (01:30) 3.89 (03:30) -- -- -- -- --
31-10-2020 17.3 (11:50) 14.8 (00:00) 16 10 (08:50) 4.17 (22:40) -- -- -- -- --
30-10-2020 17.9 (14:00) 9.8 (00:00) 13.8 6.67 (14:30) 3.33 (20:40) -- -- -- -- --
29-10-2020 16.8 (13:50) 10.7 (00:00) 13.7 5.83 (16:10) 2.78 (14:00) -- -- -- -- --
28-10-2020 16.9 (14:00) 11.9 (00:00) 14.4 4.72 (15:00) 1.67 (18:50) 6.4 2 1.6 1.8 1
27-10-2020 15.2 (17:30) 12.3 (00:00) 13.8 10.28 (14:20) 4.44 (15:50) 6.8 1 1.2 2.2 2.4

Gráficas

Temp. máximas Temp. mínimas Temp. medias Precipitaciones Rachas de viento máximas Velocidades máximas media en intervalos de 10 minutos

Datos horarios

Fecha y hora oficial Temperatura (ºC) Velocidad del viento (km/h) Dirección del viento Racha (km/h) Dirección de racha Precipitación (mm) Presión (hPa) Tendencia (hPa) Humedad (%)
2020-11-25 23:00:00 9.5 4 Nordeste 12 Norte 0 -- -- 96
2020-11-25 22:00:00 9.4 4 Nordeste 12 Este 0 -- -- 98
2020-11-25 21:00:00 9.5 0 Calma 12 Este 0.2 -- -- 97
2020-11-25 20:00:00 9.7 2 Nordeste 7 Nordeste 0 -- -- 98
2020-11-25 19:00:00 9.8 2 Sudeste 4 Sudeste 0 -- -- 99
2020-11-25 18:00:00 10 0 Calma 5 Norte 0 -- -- 98
2020-11-25 17:00:00 10.2 0 Calma 6 Este 0 -- -- 97
2020-11-25 16:00:00 10.3 0 Calma 4 Sudoeste 0 -- -- 99
2020-11-25 15:00:00 10.3 0 Calma 2 Noroeste 0 -- -- 99
2020-11-25 14:00:00 10.4 0 Calma 5 Sudeste 0 -- -- 99
2020-11-25 13:00:00 10.2 0 Calma 5 Nordeste 0 -- -- 100
2020-11-25 12:00:00 9.6 0 Calma 3 Nordeste 0 -- -- 100
2020-11-25 11:00:00 8.8 0 Calma 4 Noroeste 0 -- -- 100
2020-11-25 10:00:00 8.2 0 Calma 4 Sudeste 0 -- -- 100
2020-11-25 09:00:00 8 0 Calma 5 Norte 0 -- -- 100
2020-11-25 08:00:00 8.5 0 Calma 4 Norte 0 -- -- 100
2020-11-25 07:00:00 9.2 0 Calma 5 Norte 0 -- -- 100
2020-11-25 06:00:00 9.6 0 Calma 2 Nordeste 0 -- -- 100
2020-11-25 05:00:00 9.7 0 Calma 2 Este 0.4 -- -- 100
2020-11-25 04:00:00 9.6 0 Calma 2 Este 0.2 -- -- 100
2020-11-25 03:00:00 9.9 0 Calma 3 Este 0 -- -- 100
2020-11-25 02:00:00 10.3 0 Calma 3 Nordeste 0.6 -- -- 100
2020-11-25 01:00:00 10.7 2 Nordeste 6 Norte 0.8 -- -- 100
2020-11-25 00:00:00 11.5 2 Noroeste 9 Sur 2.2 -- -- 100
2020-11-24 23:00:00 11.7 2 Sur 20 Sudeste 9.6 -- -- 99
2020-11-24 22:00:00 12 5 Sur 28 Sur 4.4 -- -- 97
2020-11-24 21:00:00 12.3 9 Sudeste 23 Sur 4.4 -- -- 99
2020-11-24 20:00:00 12.7 11 Sur 30 Sur 2.6 -- -- 97
2020-11-24 19:00:00 13 15 Sur 58 Sur 0.4 -- -- 94
2020-11-24 18:00:00 13.5 16 Sur 48 Sur 1 -- -- 95
2020-11-24 17:00:00 12.9 12 Sur 40 Sur 1.8 -- -- 97
2020-11-24 16:00:00 13.4 15 Sur 42 Sudeste 0.2 -- -- 93
2020-11-24 15:00:00 13.8 14 Sur 41 Sur 0 -- -- 88
2020-11-24 14:00:00 12.8 12 Sur 31 Sur 0 -- -- 90
2020-11-24 13:00:00 12.6 9 Sur 31 Sudeste 0 -- -- 87
2020-11-24 12:00:00 12.3 9 Sudeste 20 Sur 0 -- -- 89
2020-11-24 11:00:00 12.1 9 Sur 24 Sudeste 0 -- -- 90
2020-11-24 10:00:00 11.1 2 Sur 9 Sur 0 -- -- 96
2020-11-24 09:00:00 10.5 4 Sur 15 Sudeste 0 -- -- 97
2020-11-24 08:00:00 10.4 8 Sudeste 19 Sur 0 -- -- 97
2020-11-24 07:00:00 10.4 6 Sudeste 15 Sur 0 -- -- 98
2020-11-24 06:00:00 10.1 3 Sudeste 15 Sudeste 0 -- -- 99
2020-11-24 05:00:00 9.8 6 Sudeste 13 Sudeste 0 -- -- 100
2020-11-24 04:00:00 9.1 2 Sudeste 8 Sudeste 0 -- -- 98
2020-11-24 03:00:00 9 5 Sudeste 11 Sur 0 -- -- 98
2020-11-24 02:00:00 8.3 0 Calma 4 Sudeste 0 -- -- 98
2020-11-24 01:00:00 8.4 0 Calma 3 Sudeste 0 -- -- 98
2020-11-24 00:00:00 8.3 0 Calma 4 Este 0 -- -- 98
2020-11-23 23:00:00 8.7 0 Calma 4 Sudeste 0 -- -- 98
2020-11-23 22:00:00 9.3 0 Calma 3 Nordeste 0 -- -- 98
2020-11-23 21:00:00 10 0 Calma 2 Este 0 -- -- 98
2020-11-23 20:00:00 10.5 0 Calma 4 Sudeste 0 -- -- 96
2020-11-23 19:00:00 11.1 0 Calma 3 Nordeste 0 -- -- 95
2020-11-23 18:00:00 12.4 2 Nordeste 6 Norte 0 -- -- 92
2020-11-23 17:00:00 13.3 0 Calma 8 Noroeste 0 -- -- 90
2020-11-23 16:00:00 14.1 2 Noroeste 12 Oeste 0 -- -- 87
2020-11-23 15:00:00 14.3 2 Oeste 8 Oeste 0 -- -- 83
2020-11-23 14:00:00 14.5 2 Noroeste 6 Oeste 0 -- -- 78
2020-11-23 13:00:00 15.5 0 Calma 4 Oeste 0 -- -- 76
2020-11-23 12:00:00 13.6 0 Calma 4 Este 0 -- -- 79
2020-11-23 11:00:00 10.6 0 Calma 2 Sur 0 -- -- 91
2020-11-23 10:00:00 8.8 0 Calma 4 Este 0 -- -- 92
2020-11-23 09:00:00 9.3 4 Nordeste 12 Nordeste 0 -- -- 84
2020-11-23 08:00:00 7.9 0 Calma 6 Sudeste 0 -- -- 93
2020-11-23 07:00:00 8.2 0 Calma 6 Este 0 -- -- 92
2020-11-23 06:00:00 8.2 0 Calma 9 Este 0 -- -- 92
2020-11-23 05:00:00 8.9 3 Este 8 Este 0 -- -- 90
2020-11-23 04:00:00 8.8 2 Nordeste 12 Este 0 -- -- 89
2020-11-23 03:00:00 8.9 0 Calma 8 Este 0 -- -- 90
2020-11-23 02:00:00 9.1 0 Calma 4 Nordeste 0 -- -- 92
2020-11-23 01:00:00 9.4 3 Nordeste 10 Nordeste 0 -- -- 91
2020-11-23 00:00:00 10.2 5 Nordeste 10 Nordeste 0 -- -- 91
2020-11-22 23:00:00 9.6 0 Calma 5 Este 0 -- -- 90
2020-11-22 22:00:00 9.7 2 Nordeste 6 Sur 0 -- -- 87
2020-11-22 21:00:00 10.2 0 Calma 3 Nordeste 0 -- -- 86
2020-11-22 20:00:00 10.7 0 Calma 3 Nordeste 0 -- -- 84
2020-11-22 19:00:00 11.4 0 Calma 4 Este 0 -- -- 79
2020-11-22 18:00:00 12.8 3 Nordeste 5 Noroeste 0 -- -- 73
2020-11-22 17:00:00 14.6 0 Calma 5 Norte 0 -- -- 68
2020-11-22 16:00:00 15.7 0 Calma 6 Noroeste 0 -- -- 70
2020-11-22 15:00:00 16.5 0 Calma 5 Oeste 0 -- -- 66
2020-11-22 14:00:00 17.5 0 Calma 8 Sur 0 -- -- 65
2020-11-22 13:00:00 17.7 3 Sudeste 7 Sur 0 -- -- 61
2020-11-22 12:00:00 15.1 3 Sur 5 Sur 0 -- -- 72
2020-11-22 11:00:00 11 0 Calma 3 Sudoeste 0 -- -- 97
2020-11-22 10:00:00 8.8 0 Calma 2 Este 0 -- -- 97
2020-11-22 09:00:00 8 0 Calma 3 Sudeste 0 -- -- 96
2020-11-22 08:00:00 8.1 0 Calma 3 Este 0 -- -- 95
2020-11-22 07:00:00 8.1 0 Calma 2 Este 0 -- -- 95
2020-11-22 06:00:00 8.2 0 Calma 4 Sudeste 0 -- -- 94
2020-11-22 05:00:00 8.2 0 Calma 3 Nordeste 0 -- -- 94
2020-11-22 04:00:00 8.6 0 Calma 3 Nordeste 0 -- -- 95
2020-11-22 03:00:00 8.9 0 Calma 3 Este 0 -- -- 96
2020-11-22 02:00:00 9.2 2 Este 4 Sudeste 0 -- -- 95
2020-11-22 01:00:00 9.1 0 Calma 3 Este 0 -- -- 96
2020-11-22 00:00:00 9.4 2 Este 3 Este 0 -- -- 96
2020-11-21 23:00:00 9.7 0 Calma 3 Nordeste 0 -- -- 94
2020-11-21 22:00:00 10.2 0 Calma 3 Nordeste 0 -- -- 94
2020-11-21 21:00:00 10.9 0 Calma 3 Nordeste 0 -- -- 93
2020-11-21 20:00:00 11.6 0 Calma 3 Nordeste 0 -- -- 92
2020-11-21 19:00:00 12.2 2 Sudeste 4 Este 0 -- -- 88
2020-11-21 18:00:00 13.6 2 Nordeste 3 Nordeste 0 -- -- 83
2020-11-21 17:00:00 14.8 0 Calma 5 Noroeste 0 -- -- 76
2020-11-21 16:00:00 15.8 2 Noroeste 6 Oeste 0 -- -- 70
2020-11-21 15:00:00 16.4 0 Calma 5 Oeste 0 -- -- 72
2020-11-21 14:00:00 16.9 0 Calma 5 Noroeste 0 -- -- 70
2020-11-21 13:00:00 17.3 0 Calma 6 Norte 0 -- -- 67
2020-11-21 12:00:00 16 0 Calma 12 Este 0 -- -- 68
2020-11-21 11:00:00 12.9 3 Sudeste 13 Nordeste 0 -- -- 77
2020-11-21 10:00:00 11 6 Nordeste 14 Este 0 -- -- 77
2020-11-21 09:00:00 10.1 2 Este 12 Nordeste 0 -- -- 80
2020-11-21 08:00:00 10.3 4 Nordeste 14 Este 0 -- -- 79
2020-11-21 07:00:00 10.3 6 Nordeste 15 Este 0 -- -- 79
2020-11-21 06:00:00 10.1 5 Nordeste 10 Nordeste 0 -- -- 81
2020-11-21 05:00:00 10.5 4 Este 12 Este 0 -- -- 80
2020-11-21 04:00:00 10.7 5 Nordeste 11 Nordeste 0 -- -- 79
2020-11-21 03:00:00 10.8 5 Nordeste 11 Nordeste 0 -- -- 80
2020-11-21 02:00:00 11.1 4 Nordeste 9 Nordeste 0 -- -- 80
2020-11-21 01:00:00 10.3 3 Nordeste 10 Este 0 -- -- 87
2020-11-21 00:00:00 10.7 0 Calma 9 Este 0 -- -- 86
2020-11-20 23:00:00 11.8 5 Nordeste 16 Nordeste 0 -- -- 78
2020-11-20 22:00:00 11.5 4 Nordeste 8 Nordeste 0 -- -- 83
2020-11-20 21:00:00 13 0 Calma 13 Este 0 -- -- 76
2020-11-20 20:00:00 14.1 2 Nordeste 11 Sudeste 0 -- -- 70
2020-11-20 19:00:00 14.8 3 Sudeste 15 Nordeste 0 -- -- 69
2020-11-20 18:00:00 14.9 0 Calma 9 Nordeste 0 -- -- 75
2020-11-20 17:00:00 16.1 2 Norte 9 Nordeste 0 -- -- 69
2020-11-20 16:00:00 16.7 3 Norte 13 Nordeste 0 -- -- 67
2020-11-20 15:00:00 16.5 5 Este 15 Este 0 -- -- 65
2020-11-20 14:00:00 16.2 4 Nordeste 13 Nordeste 0 -- -- 64
2020-11-20 13:00:00 16 4 Este 14 Nordeste 0 -- -- 68
2020-11-20 12:00:00 14.7 4 Nordeste 12 Nordeste 0 -- -- 73
2020-11-20 11:00:00 12.5 3 Nordeste 11 Norte 0 -- -- 79
2020-11-20 10:00:00 10.9 3 Nordeste 20 Sudeste 0 -- -- 82
2020-11-20 09:00:00 10.1 4 Este 19 Este 0 -- -- 84
2020-11-20 08:00:00 10.2 5 Nordeste 19 Nordeste 0 -- -- 84
2020-11-20 07:00:00 10.1 5 Nordeste 17 Este 0 -- -- 86
2020-11-20 06:00:00 9.9 4 Nordeste 14 Este 0 -- -- 87
2020-11-20 05:00:00 9.9 3 Norte 15 Nordeste 0 -- -- 89
2020-11-20 04:00:00 9.7 2 Norte 14 Noroeste 0 -- -- 91
2020-11-20 03:00:00 10.1 2 Noroeste 19 Nordeste 0 -- -- 89
2020-11-20 02:00:00 10.4 0 Calma 24 Este 0 -- -- 88
2020-11-20 01:00:00 10.7 5 Este 21 Nordeste 0 -- -- 86
2020-11-20 00:00:00 10.5 3 Sur 12 Este 0 -- -- 90
2020-11-19 23:00:00 10.6 4 Sudeste 18 Sudeste 0 -- -- 88
2020-11-19 22:00:00 11.2 2 Sur 10 Sur 0 -- -- 88
2020-11-19 21:00:00 12.2 3 Este 17 Sudeste 0 -- -- 84
2020-11-19 20:00:00 13.1 2 Este 15 Este 0 -- -- 87
2020-11-19 19:00:00 13.3 3 Nordeste 16 Nordeste 0 -- -- 89
2020-11-19 18:00:00 13.7 5 Norte 20 Nordeste 0 -- -- 87
2020-11-19 17:00:00 14.6 6 Nordeste 22 Norte 0 -- -- 84
2020-11-19 16:00:00 17.3 4 Noroeste 18 Nordeste 0 -- -- 83
2020-11-19 15:00:00 17.4 3 Norte 13 Este 0 -- -- 80
2020-11-19 14:00:00 17.2 4 Nordeste 14 Nordeste 0 -- -- 80
2020-11-19 13:00:00 16.9 3 Norte 17 Norte 0 -- -- 79
2020-11-19 12:00:00 15.6 3 Norte 15 Norte 0 -- -- 83
2020-11-19 11:00:00 14 4 Nordeste 12 Nordeste 0 -- -- 88
2020-11-19 10:00:00 12.6 6 Nordeste 16 Norte 0 -- -- 92
2020-11-19 09:00:00 12 4 Norte 13 Nordeste 0 -- -- 96
2020-11-19 08:00:00 12.5 4 Nordeste 21 Este 0 -- -- 93
2020-11-19 07:00:00 12.6 8 Norte 22 Norte 0 -- -- 95
2020-11-19 06:00:00 13.1 5 Norte 23 Norte 0 -- -- 97
2020-11-19 05:00:00 13.2 4 Nordeste 13 Nordeste 0 -- -- 99
2020-11-19 04:00:00 13.4 3 Norte 15 Nordeste 0 -- -- 99
2020-11-19 03:00:00 13.5 2 Norte 15 Sudeste 0 -- -- 99
2020-11-19 02:00:00 13.6 2 Norte 12 Nordeste 0 -- -- 99
2020-11-19 01:00:00 14.2 4 Norte 14 Nordeste 0 -- -- 99
2020-11-19 00:00:00 14.5 3 Este 10 Nordeste 0 -- -- 100
2020-11-18 23:00:00 14.7 0 Calma 11 Nordeste 0 -- -- 100
2020-11-18 22:00:00 15.1 4 Nordeste 9 Norte 0 -- -- 100
2020-11-18 21:00:00 15.3 0 Calma 16 Nordeste 0.8 -- -- 99
2020-11-18 20:00:00 15.5 5 Nordeste 13 Este 3 -- -- 98
2020-11-18 19:00:00 15.9 3 Nordeste 12 Nordeste 0 -- -- 97
2020-11-18 18:00:00 16.3 0 Calma 5 Nordeste 0 -- -- 98
2020-11-18 17:00:00 16.6 3 Sudeste 8 Sudoeste 0 -- -- 97
2020-11-18 16:00:00 16.7 7 Sur 18 Sur 0 -- -- 95
2020-11-18 15:00:00 16.5 4 Sur 23 Sur 0 -- -- 98
2020-11-18 14:00:00 16.6 5 Sur 36 Sur 0 -- -- 98
2020-11-18 13:00:00 16.3 14 Sur 36 Sur 0.2 -- -- 100
2020-11-18 12:00:00 16.1 11 Sur 41 Sur 0.2 -- -- 99
2020-11-18 11:00:00 16.5 13 Sur 40 Sudeste 0.4 -- -- 100
2020-11-18 10:00:00 16.2 10 Sur 33 Sur 0 -- -- 100
2020-11-18 09:00:00 15.6 14 Sur 34 Sudeste 0 -- -- 100
2020-11-18 08:00:00 15.5 13 Sur 33 Sudeste 0.2 -- -- 100
2020-11-18 07:00:00 15.5 9 Sur 21 Sur 0 -- -- 100
2020-11-18 06:00:00 15.5 6 Sur 19 Sudeste 0 -- -- 100
2020-11-18 05:00:00 15.4 10 Sur 26 Sur 0 -- -- 100
2020-11-18 04:00:00 15.5 11 Sur 31 Sur 0.2 -- -- 100
2020-11-18 03:00:00 15.7 13 Sur 32 Sur 0.4 -- -- 100
2020-11-18 02:00:00 15.2 14 Sur 32 Sur 1.4 -- -- 100
2020-11-18 01:00:00 15 9 Sur 24 Sur 1.2 -- -- 100
2020-11-18 00:00:00 14.9 8 Sudeste 25 Sur 0.8 -- -- 100
2020-11-17 23:00:00 15 6 Sudeste 22 Sudeste 0.6 -- -- 99
2020-11-17 22:00:00 15 10 Sur 23 Sur 0.2 -- -- 97
2020-11-17 21:00:00 15.4 2 Norte 18 Sur 0 -- -- 93
2020-11-17 20:00:00 15.6 6 Sur 21 Sur 0 -- -- 93
2020-11-17 19:00:00 15.6 9 Sur 22 Sur 0 -- -- 91
2020-11-17 18:00:00 15.5 6 Sur 15 Sur 0 -- -- 89
2020-11-17 17:00:00 16.2 8 Sur 23 Sur 0 -- -- 80
2020-11-17 16:00:00 17 4 Sur 15 Sudoeste 0 -- -- 81
2020-11-17 15:00:00 17.9 5 Sudoeste 25 Sur 0 -- -- 76
2020-11-17 14:00:00 18.4 8 Sur 25 Sur 0 -- -- 65
2020-11-17 13:00:00 18.3 8 Sur 17 Sur 0 -- -- 63
2020-11-17 12:00:00 16.8 6 Sur 14 Sudeste 0 -- -- 73
2020-11-17 11:00:00 13.5 6 Sudeste 10 Este 0 -- -- 100
2020-11-17 10:00:00 10.2 0 Calma 2 Este 0 -- -- 100
2020-11-17 09:00:00 9.4 0 Calma 3 Este 0 -- -- 100
2020-11-17 08:00:00 9.1 0 Calma 3 Nordeste 0 -- -- 100
2020-11-17 07:00:00 9 0 Calma 4 Sudeste 0 -- -- 100
2020-11-17 06:00:00 8.5 0 Calma 3 Este 0 -- -- 100
2020-11-17 05:00:00 8.3 0 Calma 3 Sur 0 -- -- 100
2020-11-17 04:00:00 8.3 0 Calma 2 Este 0 -- -- 100
2020-11-17 03:00:00 8.4 0 Calma 4 Este 0 -- -- 100
2020-11-17 02:00:00 8.5 0 Calma 7 Sudeste 0 -- -- 100
2020-11-17 01:00:00 8.5 0 Calma 2 Sudeste 0 -- -- 99
2020-11-17 00:00:00 8.8 0 Calma 3 Nordeste 0 -- -- 99
2020-11-16 23:00:00 9.2 0 Calma 2 Sudeste 0 -- -- 98
2020-11-16 22:00:00 9.5 2 Nordeste 5 Nordeste 0 -- -- 98
2020-11-16 21:00:00 9.8 0 Calma 3 Nordeste 0 -- -- 97
2020-11-16 20:00:00 10.5 0 Calma 4 Nordeste 0 -- -- 96
2020-11-16 19:00:00 11.1 2 Nordeste 4 Nordeste 0 -- -- 92
2020-11-16 18:00:00 12.5 0 Calma 7 Noroeste 0 -- -- 90
2020-11-16 17:00:00 13.8 0 Calma 4 Oeste 0 -- -- 88
2020-11-16 16:00:00 14.7 0 Calma 5 Nordeste 0 -- -- 80
2020-11-16 15:00:00 14.8 0 Calma 5 Oeste 0 -- -- 85
2020-11-16 14:00:00 15 2 Nordeste 5 Nordeste 0 -- -- 75
2020-11-16 13:00:00 14.8 2 Norte 6 Nordeste 0 -- -- 82
2020-11-16 12:00:00 13.7 0 Calma 3 Oeste 0 -- -- 100
2020-11-16 11:00:00 11.2 0 Calma 3 Sur 0 -- -- 100
2020-11-16 10:00:00 8.8 0 Calma 3 Sudeste 0 -- -- 100
2020-11-16 09:00:00 7.9 3 Sudeste 4 Sudeste 0 -- -- 100
2020-11-16 08:00:00 8 2 Este 4 Este 0 -- -- 100
2020-11-16 07:00:00 8.1 2 Este 5 Sudeste 0 -- -- 100
2020-11-16 06:00:00 8.3 0 Calma 2 Sudeste 0 -- -- 100
2020-11-16 05:00:00 8.4 0 Calma 3 Sudeste 0.2 -- -- 100
2020-11-16 04:00:00 8.8 0 Calma 3 Nordeste 0 -- -- 100
2020-11-16 03:00:00 9.3 0 Calma 8 Sudeste 0 -- -- 100
2020-11-16 02:00:00 9.7 0 Calma 2 Este 0 -- -- 100
2020-11-16 01:00:00 10.2 0 Calma 4 Este 0 -- -- 100
2020-11-16 00:00:00 11 0 Calma 3 Sudeste 0 -- -- 100
2020-11-15 23:00:00 10.8 0 Calma 4 Nordeste 0 -- -- 99
2020-11-15 22:00:00 11.4 0 Calma 4 Este 0 -- -- 97
2020-11-15 21:00:00 12.3 2 Este 6 Norte 0 -- -- 96
2020-11-15 20:00:00 13 0 Calma 5 Sur 0 -- -- 97
2020-11-15 19:00:00 13.1 0 Calma 6 Noroeste 0 -- -- 96
2020-11-15 18:00:00 14.1 0 Calma 7 Sur 0 -- -- 93
2020-11-15 17:00:00 14.4 0 Calma 9 Noroeste 0 -- -- 96
2020-11-15 16:00:00 14.9 2 Noroeste 11 Noroeste 0 -- -- 98
2020-11-15 15:00:00 14.8 3 Noroeste 16 Noroeste 0 -- -- 100
2020-11-15 14:00:00 14.5 3 Noroeste 13 Oeste 0.2 -- -- 100
2020-11-15 13:00:00 14.4 2 Noroeste 11 Sur 1.2 -- -- 100
2020-11-15 12:00:00 14.2 2 Noroeste 13 Oeste 4.6 -- -- 100
2020-11-15 11:00:00 14.7 2 Noroeste 26 Sudoeste 2.8 -- -- 99
2020-11-15 10:00:00 16.5 6 Oeste 35 Sudoeste 0.2 -- -- 98
2020-11-15 09:00:00 16.3 10 Sudoeste 42 Sur 0.8 -- -- 97
2020-11-15 08:00:00 16.7 9 Sudoeste 44 Sudoeste 0.2 -- -- 95
2020-11-15 07:00:00 16.7 6 Oeste 44 Sudoeste 0.4 -- -- 99
2020-11-15 06:00:00 17 9 Oeste 52 Sudoeste 3 -- -- 99
2020-11-15 05:00:00 17.1 8 Sudoeste 44 Sudoeste 2.6 -- -- 98
2020-11-15 04:00:00 17.1 12 Sudoeste 38 Sudoeste 0.8 -- -- 98
2020-11-15 03:00:00 16.8 8 Sudoeste 47 Sudoeste 0.8 -- -- 98
2020-11-15 02:00:00 16.9 12 Sudoeste 50 Sur 2.8 -- -- 99
2020-11-15 01:00:00 16.3 8 Sudoeste 31 Sur 1.6 -- -- 99
2020-11-15 00:00:00 16.3 9 Sudoeste 26 Sur 3.2 -- -- 100
2020-11-14 23:00:00 15.5 5 Sudoeste 14 Oeste 9.4 -- -- 100
2020-11-14 22:00:00 15.1 4 Sudeste 17 Noroeste 0.2 -- -- 97
2020-11-14 21:00:00 15.3 6 Sudoeste 31 Sur 0 -- -- 93
2020-11-14 20:00:00 14.9 5 Sudoeste 31 Sudoeste 0 -- -- 96
2020-11-14 19:00:00 14.8 8 Sudoeste 25 Sudoeste 0.6 -- -- 96
2020-11-14 18:00:00 14.6 5 Noroeste 29 Noroeste 1.4 -- -- 98
2020-11-14 17:00:00 15.6 12 Sur 32 Sur 0.2 -- -- 98
2020-11-14 16:00:00 15.7 13 Sur 37 Sur 0 -- -- 98
2020-11-14 15:00:00 15.7 14 Sur 38 Sur 0.2 -- -- 99
2020-11-14 14:00:00 16.1 13 Sur 46 Sur 0.2 -- -- 99
2020-11-14 13:00:00 15.4 13 Sur 50 Sur 0.2 -- -- 97
2020-11-14 12:00:00 15.4 13 Sur 44 Sur 0.8 -- -- 97
2020-11-14 11:00:00 15.4 13 Sur 44 Sur 0 -- -- 93
2020-11-14 10:00:00 15.3 17 Sur 39 Sur 0 -- -- 92
2020-11-14 09:00:00 15.3 9 Sur 32 Sur 0 -- -- 88
2020-11-14 08:00:00 15.3 10 Sur 32 Sur 0 -- -- 85
2020-11-14 07:00:00 15.1 10 Sur 30 Sur 0 -- -- 87
2020-11-14 06:00:00 14.8 8 Sur 24 Sur 0 -- -- 87
2020-11-14 05:00:00 15.3 10 Sur 25 Sur 0 -- -- 82
2020-11-14 04:00:00 14.9 9 Sur 23 Sur 0 -- -- 83
2020-11-14 03:00:00 14.7 6 Sur 12 Sur 0 -- -- 85
2020-11-14 02:00:00 14.3 5 Sur 14 Sur 0 -- -- 87
2020-11-14 01:00:00 14.1 5 Sur 11 Sur 0 -- -- 89
2020-11-14 00:00:00 13.5 5 Sur 13 Sudeste 0 -- -- 93
2020-11-13 23:00:00 13.8 8 Sur 16 Sur 0 -- -- 91
2020-11-13 22:00:00 14.4 8 Sur 23 Sur 0 -- -- 88
2020-11-13 21:00:00 14.5 6 Sur 24 Sudeste 0 -- -- 87
2020-11-13 20:00:00 14.6 10 Sur 20 Sur 0 -- -- 85
2020-11-13 19:00:00 14.6 3 Sudeste 20 Sur 0 -- -- 84
2020-11-13 18:00:00 15.4 7 Sur 18 Sur 0 -- -- 78
2020-11-13 17:00:00 16.5 7 Sur 19 Sur 0 -- -- 74
2020-11-13 16:00:00 17.7 8 Sur 27 Sur 0 -- -- 71
2020-11-13 15:00:00 17.5 12 Sur 29 Sur 0 -- -- 70
2020-11-13 14:00:00 18 9 Sur 29 Sur 0 -- -- 69
2020-11-13 13:00:00 18.3 10 Sur 24 Sudeste 0 -- -- 68
2020-11-13 12:00:00 17.4 4 Sudoeste 18 Sudeste 0 -- -- 74
2020-11-13 11:00:00 16 9 Sudeste 15 Sudeste 0 -- -- 78
2020-11-13 10:00:00 12.1 3 Sur 8 Sur 0 -- -- 100
2020-11-13 09:00:00 11.3 0 Calma 8 Sudeste 0 -- -- 98
2020-11-13 08:00:00 12.1 3 Sudeste 9 Sur 0 -- -- 99
2020-11-13 07:00:00 12.2 3 Sur 14 Sudeste 0 -- -- 98
2020-11-13 06:00:00 12.1 5 Sudeste 10 Sudeste 0 -- -- 99
2020-11-13 05:00:00 11.5 0 Calma 8 Sudeste 0 -- -- 99
2020-11-13 04:00:00 11.9 3 Sudeste 7 Sudeste 0 -- -- 99
2020-11-13 03:00:00 11.6 2 Sudeste 5 Sudeste 0 -- -- 98
2020-11-13 02:00:00 11.9 0 Calma 5 Sudeste 0 -- -- 96
2020-11-13 01:00:00 12.1 4 Sudeste 6 Sudeste 0 -- -- 95
2020-11-13 00:00:00 12.5 2 Sudeste 6 Sudeste 0 -- -- 94
2020-11-12 23:00:00 13.2 4 Sudeste 8 Sudeste 0 -- -- 93
2020-11-12 22:00:00 13.6 4 Sudeste 8 Sur 0 -- -- 92
2020-11-12 21:00:00 13.7 4 Sudeste 6 Sudeste 0 -- -- 91
2020-11-12 20:00:00 13.8 3 Sudeste 6 Sudeste 0 -- -- 92
2020-11-12 19:00:00 14.3 2 Sudeste 6 Sur 0 -- -- 91
2020-11-12 18:00:00 15.2 0 Calma 4 Oeste 0 -- -- 87
2020-11-12 17:00:00 16.2 0 Calma 7 Sudoeste 0 -- -- 83
2020-11-12 16:00:00 17.5 2 Oeste 10 Noroeste 0 -- -- 79
2020-11-12 15:00:00 17.7 0 Calma 12 Sur 0 -- -- 80
2020-11-12 14:00:00 18.5 5 Sur 19 Sudeste 0 -- -- 71
2020-11-12 13:00:00 18.1 6 Sur 18 Sudoeste 0 -- -- 68
2020-11-12 12:00:00 16.8 6 Sudeste 20 Sudeste 0 -- -- 75
2020-11-12 11:00:00 13.9 3 Este 9 Sudeste 0 -- -- 87
2020-11-12 10:00:00 14 6 Sudeste 14 Sur 0 -- -- 84
2020-11-12 09:00:00 13.5 6 Sur 21 Sudeste 0 -- -- 87
2020-11-12 08:00:00 13.4 7 Sur 29 Sur 0 -- -- 90
2020-11-12 07:00:00 13.4 9 Sur 26 Sur 0.2 -- -- 92
2020-11-12 06:00:00 13.4 7 Sur 25 Sur 0.2 -- -- 96
2020-11-12 05:00:00 13.3 9 Sur 22 Sur 0.6 -- -- 100
2020-11-12 04:00:00 13.6 9 Sur 24 Sudeste 1.2 -- -- 100
2020-11-12 03:00:00 13.6 9 Sur 21 Sur 0.6 -- -- 100
2020-11-12 02:00:00 13.4 0 Calma 16 Sur 0.2 -- -- 100
2020-11-12 01:00:00 13.3 5 Sur 16 Sudeste 0.4 -- -- 100
2020-11-12 00:00:00 13.3 8 Sudeste 23 Sudeste 2.4 -- -- 100
2020-11-11 23:00:00 13.3 9 Sudeste 17 Sudeste 0.2 -- -- 100
2020-11-11 22:00:00 13 9 Sur 23 Sudeste 0.4 -- -- 100
2020-11-11 21:00:00 12.5 9 Sudeste 27 Sur 0.8 -- -- 99
2020-11-11 20:00:00 12.6 10 Sur 27 Sur 2.8 -- -- 99
2020-11-11 19:00:00 13.1 9 Sur 21 Sudeste 1 -- -- 99
2020-11-11 18:00:00 13.3 9 Sur 18 Sudeste 1.8 -- -- 97
2020-11-11 17:00:00 13.6 8 Sur 25 Sudeste 0.4 -- -- 92
2020-11-11 16:00:00 14.4 10 Sur 33 Sur 0.2 -- -- 82
2020-11-11 15:00:00 15.2 13 Sur 31 Sur 0 -- -- 77
2020-11-11 14:00:00 15.4 14 Sur 45 Sur 0 -- -- 76
2020-11-11 13:00:00 15.3 14 Sur 42 Sur 0 -- -- 74
2020-11-11 12:00:00 14.6 12 Sur 41 Sur 0 -- -- 81
2020-11-11 11:00:00 13.4 12 Sur 29 Sur 0 -- -- 85
2020-11-11 10:00:00 11.4 5 Sur 17 Sudeste 0 -- -- 92
2020-11-11 09:00:00 11.5 6 Sur 17 Sur 0 -- -- 90
2020-11-11 08:00:00 11.6 7 Sudeste 18 Sudeste 0 -- -- 90
2020-11-11 07:00:00 11.3 6 Sudeste 12 Sudeste 0 -- -- 93
2020-11-11 06:00:00 10.8 4 Sur 10 Sudeste 0 -- -- 96
2020-11-11 05:00:00 10.7 3 Sur 11 Sudeste 0 -- -- 97
2020-11-11 04:00:00 10.5 3 Sur 10 Sur 0 -- -- 96
2020-11-11 03:00:00 10.5 4 Sur 8 Sur 0 -- -- 99
2020-11-11 02:00:00 9.9 0 Calma 4 Sudeste 0 -- -- 99
2020-11-11 01:00:00 9.8 0 Calma 5 Sudeste 0 -- -- 98
2020-11-11 00:00:00 10 3 Nordeste 5 Sudeste 0 -- -- 97
2020-11-10 23:00:00 10.5 2 Sudeste 6 Sudeste 0 -- -- 95
2020-11-10 22:00:00 10.7 3 Sudeste 5 Sudeste 0 -- -- 96
2020-11-10 21:00:00 10.8 2 Este 4 Sudeste 0 -- -- 96
2020-11-10 20:00:00 11.4 0 Calma 4 Este 0 -- -- 95
2020-11-10 19:00:00 12.1 2 Este 3 Nordeste 0 -- -- 92
2020-11-10 18:00:00 13.6 0 Calma 4 Oeste 0 -- -- 89
2020-11-10 17:00:00 14.6 0 Calma 8 Noroeste 0 -- -- 85
2020-11-10 16:00:00 15.7 0 Calma 8 Noroeste 0 -- -- 76
2020-11-10 15:00:00 16.3 4 Sur 12 Sur 0 -- -- 71
2020-11-10 14:00:00 16.8 5 Sur 14 Sur 0 -- -- 70
2020-11-10 13:00:00 16.7 6 Sur 18 Sur 0 -- -- 73
2020-11-10 12:00:00 15.3 6 Sudeste 13 Sur 0 -- -- 78
2020-11-10 11:00:00 13.6 5 Sudeste 11 Sudeste 0 -- -- 86
2020-11-10 10:00:00 12.4 3 Sudeste 8 Este 0 -- -- 94
2020-11-10 09:00:00 11.3 0 Calma 9 Sudeste 0 -- -- 96
2020-11-10 08:00:00 11.6 3 Sudeste 6 Sudeste 0 -- -- 97
2020-11-10 07:00:00 12.1 0 Calma 6 Sudeste 0 -- -- 99
2020-11-10 06:00:00 12.2 0 Calma 7 Sudeste 0 -- -- 99
2020-11-10 05:00:00 12.2 2 Sudeste 5 Sur 0 -- -- 99
2020-11-10 04:00:00 12 3 Sudeste 8 Sudeste 0 -- -- 99
2020-11-10 03:00:00 11.8 0 Calma 8 Sudeste 0 -- -- 99
2020-11-10 02:00:00 12.1 3 Sudeste 5 Sudeste 0 -- -- 99
2020-11-10 01:00:00 12 4 Sudeste 5 Sudeste 0 -- -- 98
2020-11-10 00:00:00 12.3 2 Sudeste 5 Sudeste 0 -- -- 97
2020-11-09 23:00:00 12.3 2 Sudeste 5 Sur 0 -- -- 98
2020-11-09 22:00:00 12.6 0 Calma 3 Sudoeste 0 -- -- 98
2020-11-09 21:00:00 12.9 0 Calma 5 Sudeste 0 -- -- 97
2020-11-09 20:00:00 13.1 0 Calma 2 Este 0 -- -- 95
2020-11-09 19:00:00 13.6 0 Calma 7 Sudoeste 0 -- -- 93
2020-11-09 18:00:00 14 2 Sur 6 Sudoeste 0 -- -- 89
2020-11-09 17:00:00 14.1 0 Calma 18 Sudoeste 0 -- -- 87
2020-11-09 16:00:00 14.9 3 Sudoeste 17 Oeste 0 -- -- 87
2020-11-09 15:00:00 14.9 2 Noroeste 12 Oeste 0 -- -- 92
2020-11-09 14:00:00 15.1 3 Oeste 11 Norte 0 -- -- 93
2020-11-09 13:00:00 15.3 3 Oeste 12 Sudoeste 0 -- -- 94
2020-11-09 12:00:00 14.7 0 Calma 8 Oeste 1.6 -- -- 99
2020-11-09 11:00:00 14.3 0 Calma 17 Sudeste 2 -- -- 98
2020-11-09 10:00:00 13.5 5 Sur 13 Sudeste 1.6 -- -- 99
2020-11-09 09:00:00 13.4 4 Sur 14 Sudoeste 0.2 -- -- 96
2020-11-09 08:00:00 13.7 3 Sudoeste 14 Noroeste 0 -- -- 98
2020-11-09 07:00:00 13.7 4 Sudoeste 15 Sur 0 -- -- 99
2020-11-09 06:00:00 13.8 3 Noroeste 23 Oeste 0 -- -- 99
2020-11-09 05:00:00 13.8 4 Noroeste 19 Sudoeste 1 -- -- 99
2020-11-09 04:00:00 14 3 Oeste 18 Sudoeste 2.2 -- -- 97
2020-11-09 03:00:00 14.3 5 Sudoeste 27 Noroeste 0 -- -- 95
2020-11-09 02:00:00 14.4 5 Oeste 24 Sur 0 -- -- 97
2020-11-09 01:00:00 14.2 5 Oeste 28 Noroeste 3.2 -- -- 96
2020-11-09 00:00:00 15 7 Sudoeste 24 Sudoeste 0 -- -- 92
2020-11-08 23:00:00 14.4 6 Sur 21 Sur 0 -- -- 95
2020-11-08 22:00:00 14 5 Sur 20 Sudoeste 0 -- -- 97
2020-11-08 21:00:00 14 5 Sur 22 Sur 0.6 -- -- 96
2020-11-08 20:00:00 14.5 8 Sur 19 Sur 0 -- -- 94
2020-11-08 19:00:00 14.1 8 Sur 18 Sur 0 -- -- 96
2020-11-08 18:00:00 14.6 6 Sur 25 Oeste 0 -- -- 93
2020-11-08 17:00:00 15.1 7 Sudoeste 29 Sudoeste 0.2 -- -- 90
2020-11-08 16:00:00 15.3 8 Sudoeste 36 Oeste 0.4 -- -- 92
2020-11-08 15:00:00 15.9 5 Sudoeste 27 Sudoeste 0.8 -- -- 93
2020-11-08 14:00:00 14.9 9 Sudoeste 42 Sur 3 -- -- 98
2020-11-08 13:00:00 15.2 13 Sur 40 Sur 0.6 -- -- 96
2020-11-08 12:00:00 15.2 13 Sur 37 Sur 2.2 -- -- 98
2020-11-08 11:00:00 15.1 8 Sur 34 Sur 1 -- -- 97
2020-11-08 10:00:00 14.8 8 Sur 29 Sur 0 -- -- 94
2020-11-08 09:00:00 14.1 10 Sur 27 Sur 2.6 -- -- 99
2020-11-08 08:00:00 13 11 Sur 24 Sur 0 -- -- 97
2020-11-08 07:00:00 12.7 8 Sudeste 36 Sur 2 -- -- 97
2020-11-08 06:00:00 14.1 21 Sur 59 Sur 10.4 -- -- 95
2020-11-08 05:00:00 15.4 14 Sur 45 Sudeste 2 -- -- 94
2020-11-08 04:00:00 15.3 10 Sur 35 Sudeste 0 -- -- 96
2020-11-08 03:00:00 15.1 12 Sur 35 Sur 0 -- -- 99
2020-11-08 02:00:00 14.7 9 Sur 32 Sur 0.2 -- -- 99
2020-11-08 01:00:00 14.4 8 Sur 19 Sur 2.2 -- -- 99
2020-11-08 00:00:00 14.5 8 Sur 20 Sur 0.6 -- -- 99
2020-11-07 23:00:00 14.5 5 Sur 21 Sur 1 -- -- 98
2020-11-07 22:00:00 14.5 11 Sur 35 Sur 3.8 -- -- 99
2020-11-07 21:00:00 14.5 17 Sur 43 Sur 0.8 -- -- 99
2020-11-07 20:00:00 14.7 13 Sur 30 Sur 1 -- -- 98
2020-11-07 19:00:00 14.8 9 Sur 26 Sudeste 6.2 -- -- 98
2020-11-07 18:00:00 14.7 10 Sur 29 Sur 0 -- -- 98
2020-11-07 17:00:00 14 9 Sur 30 Sur 2 -- -- 96
2020-11-07 16:00:00 14.8 9 Sur 37 Sur 0.4 -- -- 97
2020-11-07 15:00:00 15.1 13 Sur 49 Sur 0 -- -- 96
2020-11-07 14:00:00 14.8 14 Sur 48 Sur 1.4 -- -- 97
2020-11-07 13:00:00 14.3 13 Sur 30 Sur 1.4 -- -- 98
2020-11-07 12:00:00 13.9 14 Sur 36 Sur 1.8 -- -- 98
2020-11-07 11:00:00 13.7 13 Sur 29 Sur 2.2 -- -- 97
2020-11-07 10:00:00 14 8 Sudoeste 22 Sur 0 -- -- 89
2020-11-07 09:00:00 13.2 5 Sur 17 Sur 0 -- -- 91
2020-11-07 08:00:00 12.9 4 Sur 11 Sur 0 -- -- 92
2020-11-07 07:00:00 13.1 4 Sur 17 Sur 0 -- -- 92
2020-11-07 06:00:00 13.3 5 Sur 16 Sur 0 -- -- 91
2020-11-07 05:00:00 13.1 3 Sur 11 Sur 0 -- -- 93
2020-11-07 04:00:00 12.9 6 Sur 12 Sur 0 -- -- 94
2020-11-07 03:00:00 12.8 4 Sur 13 Sur 0 -- -- 94
2020-11-07 02:00:00 12.9 4 Sur 10 Sudeste 0 -- -- 93
2020-11-07 01:00:00 13.4 5 Sur 12 Sur 0 -- -- 93
2020-11-07 00:00:00 13.6 4 Sur 10 Sur 0 -- -- 93
2020-11-06 23:00:00 13.1 4 Sur 9 Sudeste 0 -- -- 96
2020-11-06 22:00:00 13.1 0 Calma 6 Sur 0 -- -- 95
2020-11-06 21:00:00 13.4 3 Sur 7 Sur 0 -- -- 97
2020-11-06 20:00:00 13.2 2 Sudoeste 7 Sudoeste 0.2 -- -- 99
2020-11-06 19:00:00 13.2 2 Nordeste 6 Nordeste 0.6 -- -- 98
2020-11-06 18:00:00 13.5 3 Este 10 Sur 0.6 -- -- 97
2020-11-06 17:00:00 13.7 0 Calma 6 Este 0.2 -- -- 96
2020-11-06 16:00:00 14.3 3 Sudeste 18 Sudeste 0.4 -- -- 92
2020-11-06 15:00:00 14.3 4 Sur 30 Sur 0.6 -- -- 91
2020-11-06 14:00:00 14.8 12 Sur 28 Sur 0.2 -- -- 87
2020-11-06 13:00:00 14.1 6 Sur 26 Sur 2 -- -- 92
2020-11-06 12:00:00 14.1 7 Sudeste 16 Sudeste 2.6 -- -- 92
2020-11-06 11:00:00 15.1 4 Este 11 Sudeste 0 -- -- 81
2020-11-06 10:00:00 13.9 0 Calma 8 Este 0 -- -- 85
2020-11-06 09:00:00 13.5 4 Este 12 Sudeste 0 -- -- 82
2020-11-06 08:00:00 14 4 Este 9 Este 0 -- -- 79
2020-11-06 07:00:00 14.3 4 Este 16 Sudeste 0 -- -- 79
2020-11-06 06:00:00 14.6 5 Sudeste 17 Este 0 -- -- 76
2020-11-06 05:00:00 14.8 2 Noroeste 22 Este 0 -- -- 77
2020-11-06 04:00:00 15.7 4 Este 18 Sudeste 0 -- -- 71
2020-11-06 03:00:00 15.5 7 Este 22 Sudeste 0 -- -- 72
2020-11-06 02:00:00 14.9 0 Calma 18 Sudeste 0 -- -- 77
2020-11-06 01:00:00 15.5 4 Sudeste 22 Sudeste 0 -- -- 74
2020-11-06 00:00:00 14 2 Este 18 Sudeste 0 -- -- 80
2020-11-05 23:00:00 14.3 4 Sur 14 Nordeste 0 -- -- 79
2020-11-05 22:00:00 13 5 Nordeste 8 Nordeste 0 -- -- 83
2020-11-05 21:00:00 13 2 Norte 8 Nordeste 0 -- -- 82
2020-11-05 20:00:00 13.4 5 Nordeste 13 Nordeste 0 -- -- 78
2020-11-05 19:00:00 13 5 Este 15 Sudeste 0 -- -- 80
2020-11-05 18:00:00 13 2 Nordeste 5 Sudeste 0 -- -- 83
2020-11-05 17:00:00 13.5 2 Noroeste 10 Nordeste 0 -- -- 80
2020-11-05 16:00:00 13.6 2 Norte 14 Oeste 0 -- -- 79
2020-11-05 15:00:00 14.1 2 Norte 15 Nordeste 0 -- -- 77
2020-11-05 14:00:00 14.5 3 Noroeste 16 Sur 0 -- -- 72
2020-11-05 13:00:00 12.6 6 Este 21 Este 0 -- -- 75
2020-11-05 12:00:00 11 4 Nordeste 17 Nordeste 0.4 -- -- 86
2020-11-05 11:00:00 12.1 8 Nordeste 22 Sudeste 0 -- -- 72
2020-11-05 10:00:00 11.6 6 Nordeste 26 Este 0 -- -- 72
2020-11-05 09:00:00 10.8 6 Este 26 Este 0 -- -- 73
2020-11-05 08:00:00 9.8 3 Noroeste 15 Norte 0 -- -- 76
2020-11-05 07:00:00 9.9 3 Este 23 Nordeste 0 -- -- 73
2020-11-05 06:00:00 10.1 4 Norte 20 Norte 0 -- -- 73
2020-11-05 05:00:00 9.8 3 Nordeste 16 Norte 0 -- -- 73
2020-11-05 04:00:00 10.1 3 Norte 21 Este 0 -- -- 73
2020-11-05 03:00:00 10.2 2 Noroeste 21 Norte 0 -- -- 73
2020-11-05 02:00:00 10.4 3 Noroeste 33 Nordeste 0 -- -- 71
2020-11-05 01:00:00 11.1 7 Este 38 Nordeste 0 -- -- 65
2020-11-05 00:00:00 11.3 12 Este 46 Este 0 -- -- 64
2020-11-04 23:00:00 11.1 11 Este 39 Sudeste 0 -- -- 66
2020-11-04 22:00:00 11 9 Este 36 Nordeste 0 -- -- 65
2020-11-04 21:00:00 10.8 8 Este 38 Este 0 -- -- 68
2020-11-04 20:00:00 10.8 9 Este 52 Sudeste 0 -- -- 70
2020-11-04 19:00:00 10.9 8 Este 32 Sudeste 0 -- -- 68
2020-11-04 18:00:00 11.6 6 Este 29 Norte 0 -- -- 68
2020-11-04 17:00:00 12.4 9 Este 31 Este 0 -- -- 62
2020-11-04 16:00:00 12.9 11 Nordeste 34 Nordeste 0 -- -- 66
2020-11-04 15:00:00 13 6 Nordeste 22 Nordeste 0 -- -- 66
2020-11-04 14:00:00 12.8 6 Este 30 Este 0 -- -- 66
2020-11-04 13:00:00 11.8 5 Nordeste 18 Este 0 -- -- 76
2020-11-04 12:00:00 9.6 3 Este 12 Norte 0 -- -- 86
2020-11-04 11:00:00 8 0 Calma 8 Este 0 -- -- 98
2020-11-04 10:00:00 6.7 0 Calma 6 Nordeste 0 -- -- 99
2020-11-04 09:00:00 6.2 0 Calma 3 Nordeste 0 -- -- 99
2020-11-04 08:00:00 6.2 0 Calma 4 Nordeste 0 -- -- 99
2020-11-04 07:00:00 6.6 2 Nordeste 4 Nordeste 0 -- -- 98
2020-11-04 06:00:00 7 0 Calma 5 Este 0 -- -- 97
2020-11-04 05:00:00 7.3 0 Calma 5 Nordeste -- -- -- 97
2020-11-04 04:00:00 7.5 0 Calma 5 Nordeste -- -- -- 96
2020-11-04 03:00:00 6.4 3 Nordeste 6 Norte -- -- -- 98
2020-11-04 02:00:00 6.6 0 Calma 5 Nordeste -- -- -- 96
2020-11-04 01:00:00 6.5 2 Nordeste 5 Nordeste -- -- -- 95
2020-11-04 00:00:00 6.7 0 Calma 4 Nordeste -- -- -- 95
2020-11-03 23:00:00 7.4 0 Calma 4 Sudeste -- -- -- 93
2020-11-03 22:00:00 7.6 0 Calma 4 Nordeste -- -- -- 91
2020-11-03 21:00:00 8.1 0 Calma 4 Norte -- -- -- 90
2020-11-03 20:00:00 9 0 Calma 6 Norte -- -- -- 86
2020-11-03 19:00:00 10 0 Calma 10 Nordeste -- -- -- 79
2020-11-03 18:00:00 11.2 4 Nordeste 13 Norte -- -- -- 74
2020-11-03 17:00:00 12.6 7 Este 22 Este -- -- -- 69
2020-11-03 16:00:00 12.9 4 Nordeste 22 Norte -- -- -- 66
2020-11-03 15:00:00 13.1 5 Norte 23 Nordeste -- -- -- 66
2020-11-03 14:00:00 12.5 5 Norte 18 Nordeste -- -- -- 66
2020-11-03 13:00:00 -- -- -- -- -- -- -- -- --
2020-11-03 12:00:00 13.5 5 Nordeste 17 Nordeste -- -- -- 67
2020-11-03 11:00:00 10.9 2 Noroeste 6 Noroeste -- -- -- 97
2020-11-03 10:00:00 8.5 0 Calma 3 Oeste -- -- -- 99
2020-11-03 09:00:00 7.9 0 Calma 2 Nordeste -- -- -- 99
2020-11-03 08:00:00 8.3 0 Calma 5 Norte -- -- -- 98
2020-11-03 07:00:00 8.5 0 Calma 6 Nordeste -- -- -- 99
2020-11-03 06:00:00 8.7 0 Calma 5 Este -- -- -- 100
2020-11-03 05:00:00 8.9 0 Calma 5 Norte -- -- -- 100
2020-11-03 04:00:00 9 0 Calma 4 Este -- -- -- 100
2020-11-03 03:00:00 9.2 0 Calma 5 Sudeste -- -- -- 100
2020-11-03 02:00:00 9.2 4 Sudeste 8 Nordeste -- -- -- 100
2020-11-03 01:00:00 9 0 Calma 7 Sudeste -- -- -- 100
2020-11-03 00:00:00 8.8 0 Calma 5 Sudeste -- -- -- 99
2020-11-02 23:00:00 9.3 0 Calma 2 Este -- -- -- 99
2020-11-02 22:00:00 9.9 0 Calma 3 Nordeste -- -- -- 98
2020-11-02 21:00:00 10.1 0 Calma 3 Nordeste -- -- -- 97
2020-11-02 20:00:00 10.6 0 Calma 4 Este -- -- -- 96
2020-11-02 19:00:00 11.3 2 Este 10 Norte -- -- -- 93
2020-11-02 18:00:00 13.2 0 Calma 9 Norte -- -- -- 87
2020-11-02 17:00:00 14.2 0 Calma 9 Noroeste -- -- -- 89
2020-11-02 16:00:00 14.8 0 Calma 12 Oeste -- -- -- 92
2020-11-02 15:00:00 15.5 2 Noroeste 14 Nordeste -- -- -- 91
2020-11-02 14:00:00 14.8 0 Calma 7 Norte -- -- -- 98
2020-11-02 13:00:00 14.7 0 Calma 7 Oeste -- -- -- 100
2020-11-02 12:00:00 14.4 0 Calma 8 Nordeste -- -- -- 100
2020-11-02 11:00:00 14.5 2 Noroeste 8 Noroeste -- -- -- 100
2020-11-02 10:00:00 15.5 0 Calma 6 Oeste -- -- -- 100
2020-11-02 09:00:00 17 4 Noroeste 31 Noroeste -- -- -- 100
2020-11-02 08:00:00 17.7 6 Sudoeste 35 Sudoeste -- -- -- 99
2020-11-02 07:00:00 17.6 8 Sudoeste 23 Sudoeste -- -- -- 99
2020-11-02 06:00:00 17.7 6 Sudoeste 26 Sur -- -- -- 99
2020-11-02 05:00:00 17.5 9 Sur 28 Sur -- -- -- 99
2020-11-02 04:00:00 17.8 9 Sudoeste 29 Sudoeste -- -- -- 100
2020-11-02 03:00:00 17.5 10 Sudoeste 36 Sudoeste -- -- -- 100
2020-11-02 02:00:00 17.6 8 Sudoeste 32 Sudoeste -- -- -- 100
2020-11-02 01:00:00 17.6 10 Sudoeste 34 Sudoeste -- -- -- 100
2020-11-02 00:00:00 17.2 8 Sudoeste 30 Sur -- -- -- 100
2020-11-01 23:00:00 17.3 9 Sur 36 Sudoeste -- -- -- 100
2020-11-01 22:00:00 17.3 9 Sudoeste 34 Sudoeste -- -- -- 100
2020-11-01 21:00:00 17.3 10 Sur 26 Sur -- -- -- 100
2020-11-01 20:00:00 16.9 9 Sur 28 Sur -- -- -- 100
2020-11-01 19:00:00 16.8 9 Sur 27 Sur -- -- -- 100
2020-11-01 18:00:00 16.8 7 Sudoeste 23 Sur -- -- -- 100
2020-11-01 17:00:00 16.6 12 Sur 22 Sudoeste -- -- -- 100
2020-11-01 16:00:00 17 8 Sudoeste 26 Sudoeste -- -- -- 100
2020-11-01 15:00:00 17.1 7 Sur 28 Sudoeste -- -- -- 100
2020-11-01 14:00:00 17.1 9 Sur 27 Sur -- -- -- 100
2020-11-01 13:00:00 17.1 7 Sur 23 Sudoeste -- -- -- 100
2020-11-01 12:00:00 16.7 8 Sur 24 Sur -- -- -- 100
2020-11-01 11:00:00 16.3 9 Sur 21 Sur -- -- -- 100
2020-11-01 10:00:00 16.4 10 Sur 24 Sur -- -- -- 100
2020-11-01 09:00:00 16.2 10 Sur 22 Sur -- -- -- 100
2020-11-01 08:00:00 16.2 10 Sur 26 Sur -- -- -- 100
2020-11-01 07:00:00 16.3 10 Sur 28 Sur -- -- -- 100
2020-11-01 06:00:00 16.2 11 Sur 31 Sur -- -- -- 100
2020-11-01 05:00:00 16.3 12 Sur 32 Sur -- -- -- 100
2020-11-01 04:00:00 16.3 11 Sur 32 Sur -- -- -- 100
2020-11-01 03:00:00 16.4 14 Sur 32 Sur -- -- -- 100
2020-11-01 02:00:00 16.5 12 Sur 37 Sur -- -- -- 99
2020-11-01 01:00:00 16.5 10 Sur 31 Sur -- -- -- 100
2020-11-01 00:00:00 16.5 12 Sur 29 Sur -- -- -- 100
2020-10-31 23:00:00 16.4 14 Sur 35 Sur -- -- -- 100
2020-10-31 22:00:00 16.3 15 Sur 32 Sur -- -- -- 100
2020-10-31 21:00:00 16 11 Sur 24 Sudeste -- -- -- 100
2020-10-31 20:00:00 16 7 Sur 21 Sur -- -- -- 100
2020-10-31 19:00:00 16.1 7 Sur 23 Sur -- -- -- 100
2020-10-31 18:00:00 16.2 8 Sur 30 Sur -- -- -- 100
2020-10-31 17:00:00 15.9 10 Sur 23 Sudoeste -- -- -- 100
2020-10-31 16:00:00 15.9 10 Sur 27 Sur -- -- -- 100
2020-10-31 15:00:00 16.1 11 Sur 28 Sur -- -- -- 99
2020-10-31 14:00:00 16.4 10 Sur 25 Sur -- -- -- 99
2020-10-31 13:00:00 16.8 8 Sur 24 Sur -- -- -- 98
2020-10-31 12:00:00 17.3 10 Sur 27 Sur -- -- -- 96
2020-10-31 11:00:00 16.6 11 Sur 34 Sur -- -- -- 98
2020-10-31 10:00:00 16.3 11 Sur 35 Sur -- -- -- 99
2020-10-31 09:00:00 15.9 13 Sur 36 Sudoeste -- -- -- 99
2020-10-31 08:00:00 15.9 14 Sur 34 Sudoeste -- -- -- 98
2020-10-31 07:00:00 15.9 11 Sur 28 Sur -- -- -- 98
2020-10-31 06:00:00 15.7 13 Sur 27 Sur -- -- -- 99
2020-10-31 05:00:00 15.3 10 Sur 24 Sudeste -- -- -- 99
2020-10-31 04:00:00 15.3 12 Sur 24 Sur -- -- -- 98
2020-10-31 03:00:00 15.2 10 Sur 28 Sur -- -- -- 97
2020-10-31 02:00:00 14.8 8 Sur 27 Sur -- -- -- 96
2020-10-31 01:00:00 15.3 8 Sur 25 Sudoeste -- -- -- 91
2020-10-31 00:00:00 15.2 0 Calma 23 Sur -- -- -- 89
2020-10-30 23:00:00 15 4 Sudoeste 19 Sudeste -- -- -- 90
2020-10-30 22:00:00 15 10 Sur 19 Sur -- -- -- 90
2020-10-30 21:00:00 15 9 Sur 21 Sur -- -- -- 90
2020-10-30 20:00:00 15.5 7 Sudeste 14 Sur -- -- -- 84
2020-10-30 19:00:00 15.8 6 Sur 14 Sur -- -- -- 81
2020-10-30 18:00:00 16.4 7 Sur 17 Sur -- -- -- 79
2020-10-30 17:00:00 16.9 4 Sur 22 Sur -- -- -- 78
2020-10-30 16:00:00 17 9 Sur 24 Sur -- -- -- 76
2020-10-30 15:00:00 17.2 8 Sur 24 Sur -- -- -- 76
2020-10-30 14:00:00 17.9 8 Sur 23 Sur -- -- -- 74
2020-10-30 13:00:00 16.9 9 Sur 19 Sudeste -- -- -- 77
2020-10-30 12:00:00 16 6 Sur 15 Sur -- -- -- 79
2020-10-30 11:00:00 14.6 4 Sur 12 Sur -- -- -- 81
2020-10-30 10:00:00 13.1 5 Sudeste 13 Sudeste -- -- -- 84
2020-10-30 09:00:00 10.8 0 Calma 6 Este -- -- -- 92
2020-10-30 08:00:00 11.4 3 Sur 10 Sudeste -- -- -- 88
2020-10-30 07:00:00 11.2 4 Sur 10 Sudeste -- -- -- 88
2020-10-30 06:00:00 9.9 0 Calma 6 Sudeste -- -- -- 95
2020-10-30 05:00:00 10.2 5 Sudeste 8 Sudeste -- -- -- 94
2020-10-30 04:00:00 10.8 0 Calma 8 Sudeste -- -- -- 92
2020-10-30 03:00:00 12 5 Sudeste 12 Sur -- -- -- 87
2020-10-30 02:00:00 12.3 5 Sudeste 10 Sur -- -- -- 88
2020-10-30 01:00:00 12 4 Sudeste 9 Sur -- -- -- 92
2020-10-30 00:00:00 11.8 5 Sudeste 9 Sudeste -- -- -- 92
2020-10-29 23:00:00 11.3 3 Sudeste 7 Sudeste -- -- -- 93
2020-10-29 22:00:00 10.8 3 Sudeste 5 Sudeste -- -- -- 92
2020-10-29 21:00:00 11.7 3 Sudeste 8 Sur -- -- -- 88
2020-10-29 20:00:00 12.4 5 Sudeste 9 Sudeste -- -- -- 86
2020-10-29 19:00:00 13.5 4 Sudeste 12 Sur -- -- -- 83
2020-10-29 18:00:00 14.8 6 Sur 17 Sur -- -- -- 74
2020-10-29 17:00:00 15.8 5 Sur 21 Sur -- -- -- 72
2020-10-29 16:00:00 16.4 6 Sur 18 Sur -- -- -- 67
2020-10-29 15:00:00 16.2 6 Sur 21 Sur -- -- -- 69
2020-10-29 14:00:00 16.7 10 Sur 21 Sur -- -- -- 70
2020-10-29 13:00:00 16.3 5 Sur 19 Sur -- -- -- 76
2020-10-29 12:00:00 15.3 4 Sur 9 Sudeste -- -- -- 84
2020-10-29 11:00:00 15.1 2 Oeste 15 Sur -- -- -- 86
2020-10-29 10:00:00 14.4 8 Sudeste 15 Sur -- -- -- 89
2020-10-29 09:00:00 13.1 3 Sudeste 10 Sudeste -- -- -- 96
2020-10-29 08:00:00 12.9 4 Sudeste 11 Sudeste -- -- -- 96
2020-10-29 07:00:00 13 5 Sudeste 13 Sudeste -- -- -- 96
2020-10-29 06:00:00 13.2 5 Sudeste 12 Sudeste -- -- -- 97
2020-10-29 05:00:00 13.2 4 Sudeste 11 Sudeste 0 -- -- 99
2020-10-29 04:00:00 13.3 6 Sudeste 13 Sudeste 0 -- -- 99
2020-10-29 03:00:00 13.3 5 Sudeste 9 Sudeste 0 -- -- 99
2020-10-29 02:00:00 13.3 3 Sur 9 Sudeste 0 -- -- 98
2020-10-29 01:00:00 13.1 5 Sudeste 9 Sudeste 0 -- -- 98
2020-10-29 00:00:00 13.1 4 Sudeste 8 Sudeste 0 -- -- 98
2020-10-28 23:00:00 13.1 4 Sudeste 8 Sudeste 0.2 -- -- 97
2020-10-28 22:00:00 13.6 4 Sudeste 9 Sudeste 0.2 -- -- 94
2020-10-28 21:00:00 13.5 5 Sudeste 10 Sudeste 0.2 -- -- 95
2020-10-28 20:00:00 13.5 5 Sudeste 12 Sur 0.2 -- -- 93
2020-10-28 19:00:00 13.9 5 Sudeste 12 Sur 0.2 -- -- 90
2020-10-28 18:00:00 15.3 4 Sur 13 Sudoeste 0.2 -- -- 83
2020-10-28 17:00:00 15.4 2 Sudoeste 9 Oeste 0.2 -- -- 81
2020-10-28 16:00:00 15.9 3 Noroeste 17 Oeste 0.2 -- -- 81
2020-10-28 15:00:00 16 4 Noroeste 17 Oeste 0.4 -- -- 83
2020-10-28 14:00:00 16.9 4 Oeste 14 Sudoeste 0.4 -- -- 77
2020-10-28 13:00:00 15.9 2 Noroeste 9 Oeste 0.4 -- -- 85
2020-10-28 12:00:00 15 2 Noroeste 13 Sudoeste 0.2 -- -- 89
2020-10-28 11:00:00 13.9 5 Sur 13 Sur 0.2 -- -- 97
2020-10-28 10:00:00 13.2 3 Sudeste 5 Sudeste 0.4 -- -- 99
2020-10-28 09:00:00 12.6 3 Sur 5 Sur 0.2 -- -- 99
2020-10-28 08:00:00 12.1 0 Calma 10 Sur 0.4 -- -- 99
2020-10-28 07:00:00 12.3 5 Sudeste 8 Sudeste 0.2 -- -- 99
2020-10-28 06:00:00 12.2 3 Sudeste 6 Sudeste 0.2 -- -- 98
2020-10-28 05:00:00 11.9 3 Sudeste 5 Sudeste 0.4 -- -- 98
2020-10-28 04:00:00 11.9 0 Calma 4 Sudeste 0.2 -- -- 98
2020-10-28 03:00:00 12.7 2 Sudeste 4 Sur 0.4 -- -- 95
2020-10-28 02:00:00 13.3 0 Calma 6 Sur 0.4 -- -- 98
2020-10-28 01:00:00 13.6 2 Sur 9 Noroeste 0.4 -- -- 100
2020-10-28 00:00:00 13.8 0 Calma 6 Oeste 0.4 -- -- 100
2020-10-27 23:00:00 13.8 2 Sur 11 Sudoeste 0.4 -- -- 100
2020-10-27 22:00:00 13.8 0 Calma 14 Oeste 0.4 -- -- 100
2020-10-27 21:00:00 13.7 0 Calma 5 Sudoeste 0.4 -- -- 99
2020-10-27 20:00:00 13.7 0 Calma 8 Sudeste 0.2 -- -- 99
2020-10-27 19:00:00 14 3 Sur 9 Noroeste 0.6 -- -- 99
2020-10-27 18:00:00 15 2 Oeste 25 Sur 0.2 -- -- 99
2020-10-27 17:00:00 14.9 9 Sur 34 Sur 0.4 -- -- 99
2020-10-27 16:00:00 14.9 9 Sur 36 Sur 0.4 -- -- 99
2020-10-27 15:00:00 14.7 10 Sur 37 Sur 0.4 -- -- 99
2020-10-27 14:00:00 14.4 10 Sur 31 Sur 0.4 -- -- 99
2020-10-27 13:00:00 14.1 13 Sur 31 Sudeste 0.4 -- -- 99
2020-10-27 12:00:00 14 11 Sur 24 Sur 0.2 -- -- 99
2020-10-27 11:00:00 13.7 11 Sur 28 Sur 0.2 -- -- 98
2020-10-27 10:00:00 13.6 9 Sur 29 Sur 0.2 -- -- 98
2020-10-27 09:00:00 13.3 10 Sur 27 Sur 0 -- -- 98
2020-10-27 08:00:00 13.3 6 Sudoeste 30 Sur 0.2 -- -- 96
2020-10-27 07:00:00 12.9 9 Sur 33 Sur 0.4 -- -- 96
2020-10-27 06:00:00 13.3 9 Sudoeste 25 Sudeste 0.2 -- -- 92
2020-10-27 05:00:00 12.6 5 Sur 23 Sudoeste 0.2 -- -- 95
2020-10-27 04:00:00 12.3 7 Sur 22 Sur 0.2 -- -- 94
2020-10-27 03:00:00 12.6 5 Oeste 23 Noroeste 0.4 -- -- 93
2020-10-27 02:00:00 13.2 7 Sudoeste 24 Sur 0 -- -- 86
2020-10-27 01:00:00 12.8 8 Sudoeste 24 Sudoeste 0 -- -- 87
2020-10-27 00:00:00 12.3 8 Sur 20 Sur 0.2 -- -- 90